sensor_id;sensor_type;location;lat;lon;timestamp;pressure;altitude;pressure_sealevel;temperature;humidity
36354;BME280;22383;51.114;13.666;2023-04-12T00:01:38;67405.72;;;2.32;100.00
36354;BME280;22383;51.114;13.666;2023-04-12T00:04:05;67453.84;;;2.33;100.00
36354;BME280;22383;51.114;13.666;2023-04-12T00:06:32;67452.50;;;2.30;100.00
36354;BME280;22383;51.114;13.666;2023-04-12T00:09:02;67444.06;;;2.22;100.00
36354;BME280;22383;51.114;13.666;2023-04-12T00:11:30;67432.81;;;2.12;100.00
36354;BME280;22383;51.114;13.666;2023-04-12T00:13:57;67431.31;;;2.13;100.00
36354;BME280;22383;51.114;13.666;2023-04-12T00:16:24;67387.75;;;2.16;100.00
36354;BME280;22383;51.114;13.666;2023-04-12T00:18:51;67432.25;;;2.11;100.00
36354;BME280;22383;51.114;13.666;2023-04-12T00:21:20;67430.75;;;2.12;100.00
36354;BME280;22383;51.114;13.666;2023-04-12T00:23:49;67385.47;;;2.14;100.00
36354;BME280;22383;51.114;13.666;2023-04-12T00:26:16;67439.22;;;2.20;100.00
36354;BME280;22383;51.114;13.666;2023-04-12T00:28:43;67395.63;;;2.23;100.00
36354;BME280;22383;51.114;13.666;2023-04-12T00:31:11;67461.94;;;2.43;100.00
36354;BME280;22383;51.114;13.666;2023-04-12T00:33:37;67463.41;;;2.42;100.00
36354;BME280;22383;51.114;13.666;2023-04-12T00:36:05;67472.66;;;2.53;100.00
36354;BME280;22383;51.114;13.666;2023-04-12T00:38:35;67451.03;;;2.31;100.00
36354;BME280;22383;51.114;13.666;2023-04-12T00:41:03;67440.91;;;2.21;100.00
36354;BME280;22383;51.114;13.666;2023-04-12T00:43:30;67395.03;;;2.22;100.00
36354;BME280;22383;51.114;13.666;2023-04-12T00:45:57;67445.75;;;2.23;100.00
36354;BME280;22383;51.114;13.666;2023-04-12T00:48:25;67443.16;;;2.23;100.00
36354;BME280;22383;51.114;13.666;2023-04-12T00:50:53;67453.50;;;2.35;100.00
36354;BME280;22383;51.114;13.666;2023-04-12T00:53:23;67458.00;;;2.39;100.00
36354;BME280;22383;51.114;13.666;2023-04-12T00:55:50;67460.81;;;2.42;100.00
36354;BME280;22383;51.114;13.666;2023-04-12T00:58:22;67464.53;;;2.43;100.00
36354;BME280;22383;51.114;13.666;2023-04-12T01:00:51;67463.06;;;2.44;100.00
36354;BME280;22383;51.114;13.666;2023-04-12T01:03:21;67460.06;;;2.39;100.00
36354;BME280;22383;51.114;13.666;2023-04-12T01:06:03;67452.72;;;2.32;100.00
36354;BME280;22383;51.114;13.666;2023-04-12T01:16:25;67432.44;;;2.14;100.00
36354;BME280;22383;51.114;13.666;2023-04-12T01:18:56;67432.25;;;2.11;100.00
36354;BME280;22383;51.114;13.666;2023-04-12T01:21:40;67427.38;;;2.09;100.00
36354;BME280;22383;51.114;13.666;2023-04-12T01:24:13;67418.59;;;2.03;100.00
36354;BME280;22383;51.114;13.666;2023-04-12T01:26:47;67414.44;;;1.97;100.00
36354;BME280;22383;51.114;13.666;2023-04-12T01:29:15;67418.94;;;2.01;100.00
36354;BME280;22383;51.114;13.666;2023-04-12T01:31:50;67365.78;;;1.96;100.00
36354;BME280;22383;51.114;13.666;2023-04-12T01:34:22;67417.25;;;2.00;100.00
36354;BME280;22383;51.114;13.666;2023-04-12T01:36:49;67411.63;;;1.95;100.00
36354;BME280;22383;51.114;13.666;2023-04-12T01:39:18;67413.31;;;1.96;100.00
36354;BME280;22383;51.114;13.666;2023-04-12T01:41:48;67406.56;;;1.90;100.00
36354;BME280;22383;51.114;13.666;2023-04-12T01:44:15;67402.06;;;1.86;100.00
36354;BME280;22383;51.114;13.666;2023-04-12T01:46:43;67396.44;;;1.81;100.00
36354;BME280;22383;51.114;13.666;2023-04-12T01:49:10;67336.53;;;1.69;100.00
36354;BME280;22383;51.114;13.666;2023-04-12T01:54:12;67377.28;;;1.63;100.00
36354;BME280;22383;51.114;13.666;2023-04-12T01:56:40;67387.63;;;1.75;100.00
36354;BME280;22383;51.114;13.666;2023-04-12T01:59:09;67388.19;;;1.76;100.00
36354;BME280;22383;51.114;13.666;2023-04-12T02:01:45;67399.78;;;1.84;100.00
36354;BME280;22383;51.114;13.666;2023-04-12T02:04:16;67340.47;;;1.73;100.00
36354;BME280;22383;51.114;13.666;2023-04-12T02:06:45;67334.28;;;1.67;100.00
36354;BME280;22383;51.114;13.666;2023-04-12T02:09:12;67379.91;;;1.63;100.00
36354;BME280;22383;51.114;13.666;2023-04-12T02:11:46;67379.91;;;1.63;100.00
36354;BME280;22383;51.114;13.666;2023-04-12T02:14:16;67382.16;;;1.65;100.00
36354;BME280;22383;51.114;13.666;2023-04-12T02:16:43;67376.72;;;1.63;100.00
36354;BME280;22383;51.114;13.666;2023-04-12T02:19:11;67368.28;;;1.55;100.00
36354;BME280;22383;51.114;13.666;2023-04-12T02:21:41;67364.72;;;1.49;100.00
36354;BME280;22383;51.114;13.666;2023-04-12T02:24:09;67348.00;;;1.37;100.00
36354;BME280;22383;51.114;13.666;2023-04-12T02:26:37;67335.66;;;1.25;100.00
36354;BME280;22383;51.114;13.666;2023-04-12T02:29:07;67325.31;;;1.13;100.00
36354;BME280;22383;51.114;13.666;2023-04-12T02:31:35;67313.13;;;1.05;100.00
36354;BME280;22383;51.114;13.666;2023-04-12T02:34:07;67261.19;;;1.00;100.00
36354;BME280;22383;51.114;13.666;2023-04-12T02:36:37;67255.00;;;0.94;100.00
36354;BME280;22383;51.114;13.666;2023-04-12T02:39:05;67301.88;;;0.94;100.00
36354;BME280;22383;51.114;13.666;2023-04-12T02:41:34;67303.03;;;0.96;100.00
36354;BME280;22383;51.114;13.666;2023-04-12T02:44:03;67298.53;;;0.91;100.00
36354;BME280;22383;51.114;13.666;2023-04-12T02:46:31;67288.06;;;0.84;100.00
36354;BME280;22383;51.114;13.666;2023-04-12T02:49:02;67290.44;;;0.82;100.00
36354;BME280;22383;51.114;13.666;2023-04-12T02:51:33;67283.91;;;0.78;100.00
36354;BME280;22383;51.114;13.666;2023-04-12T02:54:02;67226.91;;;0.69;100.00
36354;BME280;22383;51.114;13.666;2023-04-12T02:56:41;67267.03;;;0.63;100.00
36354;BME280;22383;51.114;13.666;2023-04-12T02:59:32;67260.28;;;0.56;100.00
36354;BME280;22383;51.114;13.666;2023-04-12T03:02:14;67253.53;;;0.50;100.00
36354;BME280;22383;51.114;13.666;2023-04-12T03:04:47;67202.56;;;0.44;100.00
36354;BME280;22383;51.114;13.666;2023-04-12T03:07:22;67241.38;;;0.42;100.00
36354;BME280;22383;51.114;13.666;2023-04-12T03:09:53;67239.34;;;0.42;100.00
36354;BME280;22383;51.114;13.666;2023-04-12T03:12:22;67242.28;;;0.40;100.00
36354;BME280;22383;51.114;13.666;2023-04-12T03:15:13;67236.31;;;0.37;100.00
36354;BME280;22383;51.114;13.666;2023-04-12T03:17:44;67239.69;;;0.40;100.00
36354;BME280;22383;51.114;13.666;2023-04-12T03:20:13;67232.16;;;0.31;100.00
36354;BME280;22383;51.114;13.666;2023-04-12T03:22:47;67235.56;;;0.34;100.00
36354;BME280;22383;51.114;13.666;2023-04-12T03:25:14;67195.44;;;0.40;100.00
36354;BME280;22383;51.114;13.666;2023-04-12T03:27:53;67241.72;;;0.40;100.00
36354;BME280;22383;51.114;13.666;2023-04-12T03:30:36;67246.78;;;0.44;100.00
36354;BME280;22383;51.114;13.666;2023-04-12T03:33:06;67199.38;;;0.44;100.00
36354;BME280;22383;51.114;13.666;2023-04-12T03:35:37;67247.34;;;0.45;100.00
36354;BME280;22383;51.114;13.666;2023-04-12T03:38:05;67260.28;;;0.56;100.00
36354;BME280;22383;51.114;13.666;2023-04-12T03:40:32;67252.06;;;0.51;100.00
36354;BME280;22383;51.114;13.666;2023-04-12T03:43:00;67212.31;;;0.55;100.00
36354;BME280;22383;51.114;13.666;2023-04-12T03:45:29;67258.03;;;0.54;100.00
36354;BME280;22383;51.114;13.666;2023-04-12T03:47:59;67247.91;;;0.45;100.00
36354;BME280;22383;51.114;13.666;2023-04-12T03:50:39;67260.06;;;0.54;100.00
36354;BME280;22383;51.114;13.666;2023-04-12T03:53:18;67256.34;;;0.53;100.00
36354;BME280;22383;51.114;13.666;2023-04-12T03:55:46;67255.78;;;0.52;100.00
36354;BME280;22383;51.114;13.666;2023-04-12T03:58:16;67260.66;;;0.54;100.00
36354;BME280;22383;51.114;13.666;2023-04-12T04:00:49;67206.69;;;0.50;100.00
36354;BME280;22383;51.114;13.666;2023-04-12T04:03:16;67200.31;;;0.42;100.00
36354;BME280;22383;51.114;13.666;2023-04-12T04:05:56;67239.13;;;0.40;100.00
36354;BME280;22383;51.114;13.666;2023-04-12T04:08:25;67236.47;;;0.32;100.00
36354;BME280;22383;51.114;13.666;2023-04-12T04:10:55;67215.53;;;0.18;100.00
36354;BME280;22383;51.114;13.666;2023-04-12T04:13:27;67167.94;;;0.15;100.00
36354;BME280;22383;51.114;13.666;2023-04-12T04:16:01;67216.78;;;0.14;100.00
36354;BME280;22383;51.114;13.666;2023-04-12T04:18:29;67196.19;;;-0.02;100.00
36354;BME280;22383;51.114;13.666;2023-04-12T04:21:00;67151.06;;;-0.01;100.00
36354;BME280;22383;51.114;13.666;2023-04-12T04:23:30;67190.03;;;-0.08;100.00
36354;BME280;22383;51.114;13.666;2023-04-12T04:26:10;67179.34;;;-0.17;100.00
36354;BME280;22383;51.114;13.666;2023-04-12T04:28:45;67167.97;;;-0.23;100.00
36354;BME280;22383;51.114;13.666;2023-04-12T04:31:16;67121.31;;;-0.28;100.00
36354;BME280;22383;51.114;13.666;2023-04-12T04:33:48;67161.72;;;-0.36;100.00
36354;BME280;22383;51.114;13.666;2023-04-12T04:36:28;67108.75;;;-0.42;100.00
36354;BME280;22383;51.114;13.666;2023-04-12T04:38:59;67149.78;;;-0.42;100.00
36354;BME280;22383;51.114;13.666;2023-04-12T04:41:44;67107.84;;;-0.40;100.00
36354;BME280;22383;51.114;13.666;2023-04-12T04:44:21;67156.31;;;-0.39;100.00
36354;BME280;22383;51.114;13.666;2023-04-12T04:46:53;67156.88;;;-0.38;100.00
36354;BME280;22383;51.114;13.666;2023-04-12T04:49:20;67155.75;;;-0.39;100.00
36354;BME280;22383;51.114;13.666;2023-04-12T04:51:50;67155.97;;;-0.36;100.00
36354;BME280;22383;51.114;13.666;2023-04-12T04:54:19;67119.09;;;-0.30;100.00
36354;BME280;22383;51.114;13.666;2023-04-12T04:56:46;67177.44;;;-0.22;100.00
36354;BME280;22383;51.114;13.666;2023-04-12T04:59:17;67188.34;;;-0.09;100.00
36354;BME280;22383;51.114;13.666;2023-04-12T05:01:54;67201.81;;;0.03;100.00
36354;BME280;22383;51.114;13.666;2023-04-12T05:04:23;67208.56;;;0.09;100.00
36354;BME280;22383;51.114;13.666;2023-04-12T05:06:50;67226.56;;;0.26;100.00
36354;BME280;22383;51.114;13.666;2023-04-12T05:09:21;67236.09;;;0.34;100.00
36354;BME280;22383;51.114;13.666;2023-04-12T05:11:57;67239.84;;;0.35;100.00
36354;BME280;22383;51.114;13.666;2023-04-12T05:14:29;67191.50;;;0.36;100.00
36354;BME280;22383;51.114;13.666;2023-04-12T05:17:13;67193.75;;;0.38;100.00
36354;BME280;22383;51.114;13.666;2023-04-12T05:19:42;67244.56;;;0.42;100.00
36354;BME280;22383;51.114;13.666;2023-04-12T05:22:10;67246.44;;;0.46;100.00
36354;BME280;22383;51.114;13.666;2023-04-12T05:24:39;67244.56;;;0.42;100.00
36354;BME280;22383;51.114;13.666;2023-04-12T05:27:09;67256.34;;;0.53;100.00
36354;BME280;22383;51.114;13.666;2023-04-12T05:29:40;67269.13;;;0.69;100.00
36354;BME280;22383;51.114;13.666;2023-04-12T05:32:11;67282.22;;;0.77;100.00
36354;BME280;22383;51.114;13.666;2023-04-12T05:34:41;67260.44;;;0.97;100.00
36354;BME280;22383;51.114;13.666;2023-04-12T05:37:18;67330.03;;;1.20;100.00
36354;BME280;22383;51.114;13.666;2023-04-12T05:39:45;67394.75;;;1.79;100.00
36354;BME280;22383;51.114;13.666;2023-04-12T05:42:20;67427.94;;;2.10;100.00
36354;BME280;22383;51.114;13.666;2023-04-12T05:44:48;67406.88;;;2.33;100.00
36354;BME280;22383;51.114;13.666;2023-04-12T05:47:23;67537.41;;;3.12;100.00
36354;BME280;22383;51.114;13.666;2023-04-12T05:49:55;67624.44;;;3.93;100.00
36354;BME280;22383;51.114;13.666;2023-04-12T05:52:22;67644.53;;;4.09;100.00
36354;BME280;22383;51.114;13.666;2023-04-12T05:54:51;67667.66;;;4.30;100.00
36354;BME280;22383;51.114;13.666;2023-04-12T05:57:19;67744.38;;;5.00;100.00
36354;BME280;22383;51.114;13.666;2023-04-12T05:59:47;67701.28;;;4.59;100.00
36354;BME280;22383;51.114;13.666;2023-04-12T06:02:16;67662.56;;;4.26;100.00
36354;BME280;22383;51.114;13.666;2023-04-12T06:04:44;67665.00;;;4.23;100.00
36354;BME280;22383;51.114;13.666;2023-04-12T06:07:18;67641.34;;;4.09;100.00
36354;BME280;22383;51.114;13.666;2023-04-12T06:09:47;67642.06;;;4.05;100.00
36354;BME280;22383;51.114;13.666;2023-04-12T06:12:16;67633.81;;;4.00;100.00
36354;BME280;22383;51.114;13.666;2023-04-12T06:14:43;67672.34;;;4.30;100.00
36354;BME280;22383;51.114;13.666;2023-04-12T06:17:11;67693.03;;;4.53;100.00
36354;BME280;22383;51.114;13.666;2023-04-12T06:19:42;67732.91;;;4.87;100.00
36354;BME280;22383;51.114;13.666;2023-04-12T06:22:13;67805.91;;;5.56;100.00
36354;BME280;22383;51.114;13.666;2023-04-12T06:24:41;67820.41;;;5.67;100.00
36354;BME280;22383;51.114;13.666;2023-04-12T06:27:10;67843.00;;;5.87;100.00
36354;BME280;22383;51.114;13.666;2023-04-12T06:29:38;67910.25;;;6.49;100.00
36354;BME280;22383;51.114;13.666;2023-04-12T06:32:05;67924.00;;;6.63;100.00
36354;BME280;22383;51.114;13.666;2023-04-12T06:34:32;67882.19;;;6.25;100.00
36354;BME280;22383;51.114;13.666;2023-04-12T06:37:06;67828.50;;;5.77;100.00
36354;BME280;22383;51.114;13.666;2023-04-12T06:39:35;67789.13;;;5.36;100.00
36354;BME280;22383;51.114;13.666;2023-04-12T06:42:02;67807.41;;;5.55;100.00
36354;BME280;22383;51.114;13.666;2023-04-12T06:44:30;67875.41;;;6.19;100.00
36354;BME280;22383;51.114;13.666;2023-04-12T06:47:01;67899.50;;;6.39;100.00
36354;BME280;22383;51.114;13.666;2023-04-12T06:49:30;67860.16;;;6.05;100.00
36354;BME280;22383;51.114;13.666;2023-04-12T06:51:59;67849.56;;;5.91;100.00
36354;BME280;22383;51.114;13.666;2023-04-12T06:54:27;67796.31;;;5.47;100.00
36354;BME280;22383;51.114;13.666;2023-04-12T06:56:54;67777.13;;;5.30;100.00
36354;BME280;22383;51.114;13.666;2023-04-12T06:59:23;67838.84;;;5.81;100.00
36354;BME280;22383;51.114;13.666;2023-04-12T07:01:50;67879.72;;;6.21;100.00
36354;BME280;22383;51.114;13.666;2023-04-12T07:04:17;67873.16;;;6.17;100.00
36354;BME280;22383;51.114;13.666;2023-04-12T07:06:45;67870.69;;;6.13;100.00
36354;BME280;22383;51.114;13.666;2023-04-12T07:09:11;67845.44;;;5.92;100.00
36354;BME280;22383;51.114;13.666;2023-04-12T07:11:41;67853.19;;;5.97;100.00
36354;BME280;22383;51.114;13.666;2023-04-12T07:14:08;67869.00;;;6.11;100.00
36354;BME280;22383;51.114;13.666;2023-04-12T07:16:36;67880.47;;;6.24;100.00
36354;BME280;22383;51.114;13.666;2023-04-12T07:19:03;67900.44;;;6.37;100.00
36354;BME280;22383;51.114;13.666;2023-04-12T07:21:30;67915.31;;;6.53;100.00
36354;BME280;22383;51.114;13.666;2023-04-12T07:24:00;67974.88;;;7.10;100.00
36354;BME280;22383;51.114;13.666;2023-04-12T07:26:27;68009.34;;;7.41;100.00
36354;BME280;22383;51.114;13.666;2023-04-12T07:28:55;67988.25;;;7.19;100.00
36354;BME280;22383;51.114;13.666;2023-04-12T07:31:22;67979.78;;;7.12;100.00
36354;BME280;22383;51.114;13.666;2023-04-12T07:33:50;67989.19;;;7.18;100.00
36354;BME280;22383;51.114;13.666;2023-04-12T07:36:17;67994.66;;;7.28;100.00
36354;BME280;22383;51.114;13.666;2023-04-12T07:38:47;68005.22;;;7.35;100.00
36354;BME280;22383;51.114;13.666;2023-04-12T07:41:14;67997.31;;;7.28;100.00
36354;BME280;22383;51.114;13.666;2023-04-12T07:43:44;67999.00;;;7.29;100.00
36354;BME280;22383;51.114;13.666;2023-04-12T07:46:11;68019.34;;;7.48;100.00
36354;BME280;22383;51.114;13.666;2023-04-12T07:48:38;68046.50;;;7.72;100.00
36354;BME280;22383;51.114;13.666;2023-04-12T07:51:08;68065.34;;;7.92;100.00
36354;BME280;22383;51.114;13.666;2023-04-12T07:53:35;68093.81;;;8.13;100.00
36354;BME280;22383;51.114;13.666;2023-04-12T07:56:02;68101.94;;;8.23;100.00
36354;BME280;22383;51.114;13.666;2023-04-12T07:58:33;68117.78;;;8.37;100.00
36354;BME280;22383;51.114;13.666;2023-04-12T08:01:06;68122.88;;;8.42;100.00
36354;BME280;22383;51.114;13.666;2023-04-12T08:03:33;68136.69;;;8.57;100.00
36354;BME280;22383;51.114;13.666;2023-04-12T08:06:00;68174.41;;;8.88;100.00
36354;BME280;22383;51.114;13.666;2023-04-12T08:08:27;68195.38;;;9.07;100.00
36354;BME280;22383;51.114;13.666;2023-04-12T08:10:54;68222.56;;;9.32;100.00
36354;BME280;22383;51.114;13.666;2023-04-12T08:13:24;68254.47;;;9.63;100.00
36354;BME280;22383;51.114;13.666;2023-04-12T08:15:52;68313.41;;;10.17;100.00
36354;BME280;22383;51.114;13.666;2023-04-12T08:18:19;68348.75;;;10.51;100.00
36354;BME280;22383;51.114;13.666;2023-04-12T08:20:46;68401.13;;;10.94;100.00
36354;BME280;22383;51.114;13.666;2023-04-12T08:23:15;68426.06;;;11.16;98.89
36354;BME280;22383;51.114;13.666;2023-04-12T08:25:42;68461.81;;;11.49;97.44
36354;BME280;22383;51.114;13.666;2023-04-12T08:28:09;68486.38;;;11.73;91.01
36354;BME280;22383;51.114;13.666;2023-04-12T08:30:36;68501.16;;;11.87;87.10
36354;BME280;22383;51.114;13.666;2023-04-12T08:33:04;68513.66;;;11.98;84.21
36354;BME280;22383;51.114;13.666;2023-04-12T08:35:31;68509.47;;;11.92;80.14
36354;BME280;22383;51.114;13.666;2023-04-12T08:38:01;68469.91;;;11.59;79.07
36354;BME280;22383;51.114;13.666;2023-04-12T08:40:33;68470.50;;;11.59;79.16
36354;BME280;22383;51.114;13.666;2023-04-12T08:43:06;68490.16;;;11.82;78.08
36354;BME280;22383;51.114;13.666;2023-04-12T08:45:35;68503.63;;;11.91;77.29
36354;BME280;22383;51.114;13.666;2023-04-12T08:48:08;68538.44;;;12.18;72.86
36354;BME280;22383;51.114;13.666;2023-04-12T08:50:35;68560.03;;;12.38;70.09
36354;BME280;22383;51.114;13.666;2023-04-12T08:53:02;68527.66;;;12.08;68.09
36354;BME280;22383;51.114;13.666;2023-04-12T08:55:29;68505.47;;;11.88;68.92
36354;BME280;22383;51.114;13.666;2023-04-12T08:57:57;68537.31;;;12.17;71.31
36354;BME280;22383;51.114;13.666;2023-04-12T09:00:27;68517.06;;;12.01;67.88
36354;BME280;22383;51.114;13.666;2023-04-12T09:02:54;68547.34;;;12.24;69.69
36354;BME280;22383;51.114;13.666;2023-04-12T09:05:28;68567.00;;;12.46;68.49
36354;BME280;22383;51.114;13.666;2023-04-12T09:07:56;68596.16;;;12.75;68.01
36354;BME280;22383;51.114;13.666;2023-04-12T09:10:31;68603.34;;;12.79;66.65
36354;BME280;22383;51.114;13.666;2023-04-12T09:12:59;68619.06;;;12.91;66.37
36354;BME280;22383;51.114;13.666;2023-04-12T09:15:27;68596.16;;;12.75;65.32
36354;BME280;22383;51.114;13.666;2023-04-12T09:20:32;68609.22;;;12.87;65.33
36354;BME280;22383;51.114;13.666;2023-04-12T09:22:59;68597.09;;;12.74;63.37
36354;BME280;22383;51.114;13.666;2023-04-12T09:25:34;68611.50;;;12.89;65.09
36354;BME280;22383;51.114;13.666;2023-04-12T09:28:02;68736.50;;;14.02;63.71
36354;BME280;22383;51.114;13.666;2023-04-12T09:30:33;68836.03;;;14.92;65.92
36354;BME280;22383;51.114;13.666;2023-04-12T09:33:10;68876.41;;;15.28;62.28
36354;BME280;22383;51.114;13.666;2023-04-12T09:35:40;68857.66;;;15.11;60.43
36354;BME280;22383;51.114;13.666;2023-04-12T09:38:09;68747.09;;;14.09;59.05
36354;BME280;22383;51.114;13.666;2023-04-12T09:40:39;68731.03;;;13.92;60.09
36354;BME280;22383;51.114;13.666;2023-04-12T09:43:07;68746.38;;;14.06;60.05
36354;BME280;22383;51.114;13.666;2023-04-12T09:45:35;68856.50;;;15.10;60.83
36354;BME280;22383;51.114;13.666;2023-04-12T09:48:05;68934.47;;;15.81;59.13
36354;BME280;22383;51.114;13.666;2023-04-12T09:50:33;68947.00;;;15.92;56.43
36354;BME280;22383;51.114;13.666;2023-04-12T09:53:01;68992.53;;;16.33;54.81
36354;BME280;22383;51.114;13.666;2023-04-12T09:55:29;68896.91;;;15.47;55.96
36354;BME280;22383;51.114;13.666;2023-04-12T09:58:03;68789.94;;;14.50;56.70
36354;BME280;22383;51.114;13.666;2023-04-12T10:00:31;68846.84;;;15.02;58.07
36354;BME280;22383;51.114;13.666;2023-04-12T10:03:01;68914.38;;;15.60;56.95
36354;BME280;22383;51.114;13.666;2023-04-12T10:05:29;68968.44;;;16.09;55.43
36354;BME280;22383;51.114;13.666;2023-04-12T10:08:00;68940.16;;;15.86;52.50
36354;BME280;22383;51.114;13.666;2023-04-12T10:10:29;68972.78;;;16.18;54.03
36354;BME280;22383;51.114;13.666;2023-04-12T10:12:56;68925.72;;;15.70;54.96
36354;BME280;22383;51.114;13.666;2023-04-12T10:15:28;68956.13;;;15.93;55.57
36354;BME280;22383;51.114;13.666;2023-04-12T10:18:06;68955.19;;;15.95;57.64
36354;BME280;22383;51.114;13.666;2023-04-12T10:20:33;68912.66;;;15.59;54.47
36354;BME280;22383;51.114;13.666;2023-04-12T10:23:04;68867.88;;;15.21;54.91
36354;BME280;22383;51.114;13.666;2023-04-12T10:25:31;68825.06;;;14.80;56.00
36354;BME280;22383;51.114;13.666;2023-04-12T10:28:17;68829.59;;;14.84;57.80
36354;BME280;22383;51.114;13.666;2023-04-12T10:30:47;68891.41;;;15.37;59.14
36354;BME280;22383;51.114;13.666;2023-04-12T10:33:16;68941.13;;;15.84;58.58
36354;BME280;22383;51.114;13.666;2023-04-12T10:35:49;68930.50;;;15.77;55.33
36354;BME280;22383;51.114;13.666;2023-04-12T10:38:17;68881.94;;;15.31;57.69
36354;BME280;22383;51.114;13.666;2023-04-12T10:43:37;68854.03;;;15.06;53.67
36354;BME280;22383;51.114;13.666;2023-04-12T10:46:05;68882.88;;;15.29;57.08
36354;BME280;22383;51.114;13.666;2023-04-12T10:48:36;68850.81;;;15.05;55.71
36354;BME280;22383;51.114;13.666;2023-04-12T10:53:40;68896.72;;;15.44;58.26
36354;BME280;22383;51.114;13.666;2023-04-12T10:59:19;68898.25;;;15.43;61.15
36354;BME280;22383;51.114;13.666;2023-04-12T11:04:32;68956.09;;;16.00;61.23
36354;BME280;22383;51.114;13.666;2023-04-12T11:07:10;68993.69;;;16.34;59.09
36354;BME280;22383;51.114;13.666;2023-04-12T11:09:40;68968.44;;;16.09;59.02
36354;BME280;22383;51.114;13.666;2023-04-12T11:12:32;68977.75;;;16.20;60.67
36354;BME280;22383;51.114;13.666;2023-04-12T11:15:00;68966.94;;;16.10;59.77
36354;BME280;22383;51.114;13.666;2023-04-12T11:17:40;68925.72;;;15.70;60.71
36354;BME280;22383;51.114;13.666;2023-04-12T11:20:10;68841.34;;;14.99;62.13
36354;BME280;22383;51.114;13.666;2023-04-12T11:22:39;68899.38;;;15.44;62.61
36354;BME280;22383;51.114;13.666;2023-04-12T11:25:09;68891.41;;;15.37;62.14
36354;BME280;22383;51.114;13.666;2023-04-12T11:27:39;68936.03;;;15.80;62.57
36354;BME280;22383;51.114;13.666;2023-04-12T11:30:17;68887.44;;;15.34;60.60
36354;BME280;22383;51.114;13.666;2023-04-12T11:32:46;68727.78;;;13.92;62.49
36354;BME280;22383;51.114;13.666;2023-04-12T11:35:14;68695.97;;;13.63;65.15
36354;BME280;22383;51.114;13.666;2023-04-12T11:37:46;68718.69;;;13.84;67.86
36354;BME280;22383;51.114;13.666;2023-04-12T11:40:13;68666.22;;;13.34;68.39
36354;BME280;22383;51.114;13.666;2023-04-12T11:42:40;68610.72;;;12.86;69.07
36354;BME280;22383;51.114;13.666;2023-04-12T11:45:10;68583.47;;;12.61;72.01
36354;BME280;22383;51.114;13.666;2023-04-12T11:47:44;68540.50;;;12.25;74.08
36354;BME280;22383;51.114;13.666;2023-04-12T11:50:26;68612.81;;;12.85;75.50
36354;BME280;22383;51.114;13.666;2023-04-12T11:52:54;68591.25;;;12.66;74.76
36354;BME280;22383;51.114;13.666;2023-04-12T11:55:24;68579.88;;;12.56;76.10
36354;BME280;22383;51.114;13.666;2023-04-12T11:57:54;68565.50;;;12.47;75.38
36354;BME280;22383;51.114;13.666;2023-04-12T12:00:21;68597.47;;;12.72;76.56
36354;BME280;22383;51.114;13.666;2023-04-12T12:02:48;68602.03;;;12.76;77.07
36354;BME280;22383;51.114;13.666;2023-04-12T12:05:33;68641.00;;;13.16;75.47
36354;BME280;22383;51.114;13.666;2023-04-12T12:08:03;68688.19;;;13.58;76.29
36354;BME280;22383;51.114;13.666;2023-04-12T12:10:36;68704.47;;;13.71;74.43
36354;BME280;22383;51.114;13.666;2023-04-12T12:13:24;68711.31;;;13.77;73.25
36354;BME280;22383;51.114;13.666;2023-04-12T12:15:51;68713.78;;;13.82;72.24
36354;BME280;22383;51.114;13.666;2023-04-12T12:18:23;68681.56;;;13.48;71.74
36354;BME280;22383;51.114;13.666;2023-04-12T12:20:51;68622.09;;;12.96;69.20
36354;BME280;22383;51.114;13.666;2023-04-12T12:23:28;68649.53;;;13.23;72.50
36354;BME280;22383;51.114;13.666;2023-04-12T12:25:56;68664.72;;;13.35;73.70
36354;BME280;22383;51.114;13.666;2023-04-12T12:28:40;68697.13;;;13.64;73.30
36354;BME280;22383;51.114;13.666;2023-04-12T12:31:10;68698.63;;;13.63;73.35
36354;BME280;22383;51.114;13.666;2023-04-12T12:33:38;68693.69;;;13.61;71.98
36354;BME280;22383;51.114;13.666;2023-04-12T12:36:15;68745.22;;;14.05;71.29
36354;BME280;22383;51.114;13.666;2023-04-12T12:38:43;68803.06;;;14.62;72.18
36354;BME280;22383;51.114;13.666;2023-04-12T12:43:50;68735.75;;;13.99;69.56
36354;BME280;22383;51.114;13.666;2023-04-12T12:46:20;68769.69;;;14.27;70.02
36354;BME280;22383;51.114;13.666;2023-04-12T12:48:47;68741.44;;;14.04;68.60
36354;BME280;22383;51.114;13.666;2023-04-12T12:51:15;68675.88;;;13.42;69.66
36354;BME280;22383;51.114;13.666;2023-04-12T12:53:45;68623.78;;;12.98;71.17
36354;BME280;22383;51.114;13.666;2023-04-12T12:56:13;68603.53;;;12.82;71.39
36354;BME280;22383;51.114;13.666;2023-04-12T12:58:40;68579.31;;;12.55;71.87
36354;BME280;22383;51.114;13.666;2023-04-12T13:01:07;68594.44;;;12.74;73.12
36354;BME280;22383;51.114;13.666;2023-04-12T13:03:34;68584.78;;;12.65;73.35
36354;BME280;22383;51.114;13.666;2023-04-12T13:06:02;68605.44;;;12.79;72.41
36354;BME280;22383;51.114;13.666;2023-04-12T13:08:29;68616.59;;;12.86;72.49
36354;BME280;22383;51.114;13.666;2023-04-12T13:11:00;68638.38;;;13.09;72.78
36354;BME280;22383;51.114;13.666;2023-04-12T13:13:27;68678.75;;;13.45;72.04
36354;BME280;22383;51.114;13.666;2023-04-12T13:15:54;68700.50;;;13.67;71.32
36354;BME280;22383;51.114;13.666;2023-04-12T13:18:21;68740.09;;;14.00;70.15
36354;BME280;22383;51.114;13.666;2023-04-12T13:20:48;68777.25;;;14.36;70.60
36354;BME280;22383;51.114;13.666;2023-04-12T13:23:16;68769.28;;;14.29;67.67
36354;BME280;22383;51.114;13.666;2023-04-12T13:25:43;68785.22;;;14.44;69.48
36354;BME280;22383;51.114;13.666;2023-04-12T13:28:10;68779.34;;;14.36;68.32
36354;BME280;22383;51.114;13.666;2023-04-12T13:30:38;68756.03;;;14.15;68.13
36354;BME280;22383;51.114;13.666;2023-04-12T13:33:05;68738.97;;;13.99;66.11